Time,TemperatureF,DewpointF,PressureIn,WindDirection,WindDirectionDegrees,WindSpeedMPH,WindSpeedGustMPH,Humidity,HourlyPrecipIn,Conditions,Clouds,dailyrainin,SolarRadiationWatts/m^2,SoftwareType,DateUTC
2013-08-08 00:01:00,52.0,51.0,-100.00,SW,232,0.0,2.0,95,0.00,,,0.00,0.000000,,2013-08-08 07:01:00,
2013-08-08 00:43:00,51.0,50.0,-100.00,WNW,301,0.0,2.0,97,0.00,,,0.00,0.000000,,2013-08-08 07:43:00,
2013-08-08 00:53:00,51.0,50.0,-100.00,WNW,301,0.0,2.0,97,0.00,,,0.00,0.000000,,2013-08-08 07:53:00,
2013-08-08 01:01:00,51.0,50.0,-100.00,WNW,301,0.0,2.0,97,0.00,,,0.00,0.000000,,2013-08-08 08:01:00,
2013-08-08 01:32:00,49.0,48.0,-100.00,West,280,0.0,2.0,97,0.00,,,0.00,0.000000,,2013-08-08 08:32:00,
2013-08-08 01:43:00,49.0,48.0,-100.00,West,280,0.0,2.0,97,0.00,,,0.00,0.000000,,2013-08-08 08:43:00,
2013-08-08 01:53:00,49.0,48.0,-100.00,West,280,0.0,2.0,97,0.00,,,0.00,0.000000,,2013-08-08 08:53:00,
2013-08-08 02:01:00,49.0,48.0,-100.00,West,280,0.0,2.0,97,0.00,,,0.00,0.000000,,2013-08-08 09:01:00,
2013-08-08 02:32:00,49.0,48.0,-100.00,NNW,337,1.0,2.0,97,0.00,,,0.00,0.000000,,2013-08-08 09:32:00,
2013-08-08 02:43:00,49.0,48.0,-100.00,NNW,337,1.0,2.0,97,0.00,,,0.00,0.000000,,2013-08-08 09:43:00,
2013-08-08 02:53:00,49.0,48.0,-100.00,NNW,337,1.0,2.0,97,0.00,,,0.00,0.000000,,2013-08-08 09:53:00,
2013-08-08 03:01:00,49.0,48.0,-100.00,NNW,337,1.0,2.0,97,0.00,,,0.00,0.000000,,2013-08-08 10:01:00,
2013-08-08 03:32:00,49.0,48.0,-100.00,SW,232,2.0,2.0,97,0.00,,,0.00,0.000000,,2013-08-08 10:32:00,
2013-08-08 03:43:00,49.0,48.0,-100.00,SW,232,2.0,2.0,97,0.00,,,0.00,0.000000,,2013-08-08 10:43:00,
2013-08-08 03:52:00,49.0,48.0,-100.00,SW,232,2.0,2.0,97,0.00,,,0.00,0.000000,,2013-08-08 10:52:00,
2013-08-08 04:01:00,49.0,48.0,-100.00,SW,232,2.0,2.0,97,0.00,,,0.00,0.000000,,2013-08-08 11:01:00,
2013-08-08 05:01:00,47.0,46.0,-100.00,ENE,66,1.0,4.0,97,0.00,,,0.00,0.000000,,2013-08-08 12:01:00,
2013-08-08 05:43:00,47.0,46.0,-100.00,WNW,288,1.0,2.0,97,0.00,,,0.00,0.000000,,2013-08-08 12:43:00,
2013-08-08 08:43:00,55.0,51.0,-100.00,East,90,1.0,2.0,85,-99.99,,,0.00,210.000000,,2013-08-08 15:43:00,
2013-08-08 08:53:00,55.0,51.0,-100.00,East,90,1.0,2.0,85,-99.99,,,0.00,210.000000,,2013-08-08 15:53:00,
2013-08-08 09:01:00,55.0,51.0,-100.00,East,90,1.0,2.0,85,-99.99,,,0.00,210.000000,,2013-08-08 16:01:00,
2013-08-08 09:32:00,62.0,54.0,-100.00,NNE,27,2.0,6.0,76,0.00,,,0.00,358.000000,,2013-08-08 16:32:00,
2013-08-08 09:42:00,62.0,54.0,-100.00,NNE,27,2.0,6.0,76,0.00,,,0.00,358.000000,,2013-08-08 16:42:00,
2013-08-08 09:52:00,62.0,54.0,-100.00,NNE,27,2.0,6.0,76,0.00,,,0.00,358.000000,,2013-08-08 16:52:00,
2013-08-08 10:01:00,62.0,54.0,-100.00,NNE,27,2.0,6.0,76,0.00,,,0.00,358.000000,,2013-08-08 17:01:00,
2013-08-08 10:43:00,67.0,56.0,-100.00,NW,322,2.0,7.0,69,0.00,,,0.00,476.000000,,2013-08-08 17:43:00,
2013-08-08 11:32:00,66.0,56.0,-100.00,WNW,290,3.0,8.0,69,-99.99,,,0.00,430.000000,,2013-08-08 18:32:00,
2013-08-08 11:43:00,66.0,56.0,-100.00,WNW,290,3.0,8.0,69,-99.99,,,0.00,430.000000,,2013-08-08 18:43:00,
2013-08-08 11:52:00,66.0,56.0,-100.00,WNW,290,3.0,8.0,69,-99.99,,,0.00,430.000000,,2013-08-08 18:52:00,
2013-08-08 13:32:00,66.0,53.0,-100.00,SE,129,8.0,13.0,63,-99.99,,,0.00,914.000000,,2013-08-08 20:32:00,
2013-08-08 13:42:00,66.0,53.0,-100.00,SE,129,8.0,13.0,63,-99.99,,,0.00,914.000000,,2013-08-08 20:42:00,
2013-08-08 13:52:00,66.0,53.0,-100.00,SE,129,8.0,13.0,63,-99.99,,,0.00,914.000000,,2013-08-08 20:52:00,
2013-08-08 14:01:00,66.0,53.0,-100.00,SE,129,8.0,13.0,63,-99.99,,,0.00,914.000000,,2013-08-08 21:01:00,
2013-08-08 14:34:00,65.0,53.0,-100.00,SSE,151,8.0,14.0,65,-99.99,,,0.00,912.000000,,2013-08-08 21:34:00,
2013-08-08 14:45:00,65.0,53.0,-100.00,SSE,151,8.0,14.0,65,-99.99,,,0.00,912.000000,,2013-08-08 21:45:00,
2013-08-08 14:55:00,65.0,53.0,-100.00,SSE,151,8.0,14.0,65,-99.99,,,0.00,912.000000,,2013-08-08 21:55:00,
2013-08-08 15:37:00,69.0,55.0,-100.00,NE,48,3.0,17.0,60,-99.99,,,0.00,857.000000,,2013-08-08 22:37:00,
2013-08-08 16:56:00,69.0,55.0,-100.00,ENE,70,3.0,9.0,60,-99.99,,,0.00,760.000000,,2013-08-08 23:56:00,
2013-08-08 17:47:00,65.0,53.0,-100.00,WNW,285,3.0,8.0,65,-99.99,,,0.00,545.000000,,2013-08-09 00:47:00,
2013-08-08 17:55:00,65.0,53.0,-100.00,WNW,285,3.0,8.0,65,-99.99,,,0.00,545.000000,,2013-08-09 00:55:00,
2013-08-08 18:01:00,65.0,53.0,-100.00,WNW,285,3.0,8.0,65,-99.99,,,0.00,545.000000,,2013-08-09 01:01:00,
2013-08-08 18:37:00,62.0,53.0,-100.00,North,357,3.0,8.0,73,-99.99,,,0.00,170.000000,,2013-08-09 01:37:00,
2013-08-08 18:46:00,62.0,53.0,-100.00,North,357,3.0,8.0,73,-99.99,,,0.00,170.000000,,2013-08-09 01:46:00,
2013-08-08 18:58:00,62.0,53.0,-100.00,North,357,3.0,8.0,73,-99.99,,,0.00,170.000000,,2013-08-09 01:58:00,
2013-08-08 19:47:00,60.0,52.0,-100.00,NE,34,2.0,9.0,76,0.00,,,0.00,84.000000,,2013-08-09 02:47:00,
2013-08-08 19:56:00,60.0,52.0,-100.00,NE,34,2.0,9.0,76,0.00,,,0.00,84.000000,,2013-08-09 02:56:00,
2013-08-08 20:03:00,60.0,52.0,-100.00,NE,34,2.0,9.0,76,0.00,,,0.00,84.000000,,2013-08-09 03:03:00,
2013-08-08 20:35:00,59.0,52.0,-100.00,North,10,2.0,6.0,79,0.00,,,0.00,19.000000,,2013-08-09 03:35:00,
2013-08-08 20:47:00,59.0,52.0,-100.00,North,10,2.0,6.0,79,0.00,,,0.00,19.000000,,2013-08-09 03:47:00,
2013-08-08 21:01:00,59.0,52.0,-100.00,North,10,2.0,6.0,79,0.00,,,0.00,19.000000,,2013-08-09 04:01:00,
2013-08-08 21:33:00,58.0,52.0,-100.00,West,266,2.0,3.0,81,0.00,,,0.00,0.000000,,2013-08-09 04:33:00,
2013-08-08 21:43:00,58.0,52.0,-100.00,West,266,2.0,3.0,81,0.00,,,0.00,0.000000,,2013-08-09 04:43:00,
2013-08-08 21:53:00,58.0,52.0,-100.00,West,266,2.0,3.0,81,0.00,,,0.00,0.000000,,2013-08-09 04:53:00,
2013-08-08 22:01:00,58.0,52.0,-100.00,West,266,2.0,3.0,81,0.00,,,0.00,0.000000,,2013-08-09 05:01:00,
2013-08-08 22:33:00,54.0,51.0,-100.00,SW,221,1.0,3.0,89,0.00,,,0.00,0.000000,,2013-08-09 05:33:00,
2013-08-08 22:43:00,54.0,51.0,-100.00,SW,221,1.0,3.0,89,0.00,,,0.00,0.000000,,2013-08-09 05:43:00,
2013-08-08 22:52:00,54.0,51.0,-100.00,SW,221,1.0,3.0,89,0.00,,,0.00,0.000000,,2013-08-09 05:52:00,
2013-08-08 23:01:00,54.0,51.0,-100.00,SW,221,1.0,3.0,89,0.00,,,0.00,0.000000,,2013-08-09 06:01:00,
2013-08-08 23:32:00,52.0,50.0,-100.00,West,265,1.0,2.0,94,0.00,,,0.00,0.000000,,2013-08-09 06:32:00,
2013-08-08 23:43:00,52.0,50.0,-100.00,West,265,1.0,2.0,94,0.00,,,0.00,0.000000,,2013-08-09 06:43:00,
2013-08-08 23:52:00,52.0,50.0,-100.00,West,265,1.0,2.0,94,0.00,,,0.00,0.000000,,2013-08-09 06:52:00,